createdAt,value
2023-01-30T00:00:39.265Z,15.04
2023-01-30T00:01:39.309Z,15.05
2023-01-30T00:02:39.373Z,15.02
2023-01-30T00:03:39.407Z,15.05
2023-01-30T00:04:39.517Z,15.02
2023-01-30T00:05:39.470Z,15.01
2023-01-30T00:06:39.541Z,14.99
2023-01-30T00:07:39.554Z,15.01
2023-01-30T00:08:39.607Z,14.99
2023-01-30T00:09:39.648Z,14.99
2023-01-30T00:10:39.701Z,14.96
2023-01-30T00:11:39.735Z,14.95
2023-01-30T00:12:39.771Z,14.95
2023-01-30T00:13:39.787Z,14.98
2023-01-30T00:14:39.822Z,14.95
2023-01-30T00:15:39.905Z,14.98
2023-01-30T00:16:39.927Z,14.92
2023-01-30T00:17:39.920Z,14.89
2023-01-30T00:18:40.013Z,14.89
2023-01-30T00:19:39.964Z,14.90
2023-01-30T00:20:39.961Z,14.92
2023-01-30T00:21:40.006Z,14.89
2023-01-30T00:22:44.206Z,14.89
2023-01-30T00:23:41.011Z,14.89
2023-01-30T00:24:40.112Z,14.85
2023-01-30T00:25:40.195Z,14.84
2023-01-30T00:26:40.065Z,14.83
2023-01-30T00:27:40.002Z,14.82
2023-01-30T00:28:39.999Z,14.79
2023-01-30T00:51:40.491Z,14.44
2023-01-30T00:52:40.524Z,14.44
2023-01-30T00:53:40.588Z,14.44
2023-01-30T00:54:40.641Z,14.42
2023-01-30T00:55:40.681Z,14.41
2023-01-30T00:57:40.763Z,14.40
2023-01-30T00:58:40.803Z,14.38
2023-01-30T00:59:40.883Z,14.39
2023-01-30T01:00:40.884Z,14.38
2023-01-30T01:01:41.027Z,14.36
2023-01-30T01:02:41.006Z,14.38
2023-01-30T01:03:41.040Z,14.36
2023-01-30T01:04:41.063Z,14.35
2023-01-30T01:05:41.089Z,14.34
2023-01-30T01:06:41.161Z,14.34
2023-01-30T01:07:41.180Z,14.31
2023-01-30T01:08:41.216Z,14.32
2023-01-30T01:09:41.249Z,14.31
2023-01-30T01:10:41.296Z,14.32
2023-01-30T01:11:41.300Z,14.31
2023-01-30T01:12:41.348Z,14.29
2023-01-30T01:13:41.379Z,14.30
2023-01-30T01:15:41.435Z,14.29
2023-01-30T01:16:41.499Z,14.29
2023-01-30T01:17:41.456Z,14.26
2023-01-30T01:18:41.517Z,14.26
2023-01-30T01:19:41.533Z,14.25
2023-01-30T01:20:41.558Z,14.26
2023-01-30T01:22:41.614Z,14.25
2023-01-30T01:23:41.627Z,14.25
2023-01-30T01:24:41.661Z,14.26
2023-01-30T01:25:41.665Z,14.25
2023-01-30T01:26:41.763Z,14.24
2023-01-30T01:27:41.729Z,14.22
2023-01-30T01:28:41.765Z,14.22
2023-01-30T01:29:41.775Z,14.21
2023-01-30T01:30:41.761Z,14.23
2023-01-30T01:31:41.908Z,14.19
2023-01-30T01:32:41.795Z,14.19
2023-01-30T01:33:41.820Z,14.20
2023-01-30T01:34:41.858Z,14.20
2023-01-30T01:35:41.836Z,14.20
2023-01-30T01:36:53.291Z,14.20
2023-01-30T01:37:42.849Z,14.19
2023-01-30T01:38:41.861Z,14.19
2023-01-30T01:39:41.841Z,14.19
2023-01-30T01:40:41.844Z,14.19
2023-01-30T01:41:41.846Z,14.18
2023-01-30T01:42:41.809Z,14.16
2023-01-30T01:43:41.821Z,14.17
2023-01-30T01:44:41.824Z,14.16
2023-01-30T01:45:41.814Z,14.16
2023-01-30T01:46:41.800Z,14.12
2023-01-30T01:47:41.848Z,14.14
2023-01-30T01:48:41.822Z,14.13
2023-01-30T01:49:41.800Z,14.13
2023-01-30T01:50:41.799Z,14.13
2023-01-30T01:51:41.763Z,14.13
2023-01-30T01:52:41.772Z,14.12
2023-01-30T01:53:41.749Z,14.14
2023-01-30T01:54:41.758Z,14.12
2023-01-30T01:55:41.773Z,14.10
2023-01-30T01:56:41.751Z,14.10
2023-01-30T01:57:41.747Z,14.10
2023-01-30T01:58:41.723Z,14.10
2023-01-30T01:59:41.737Z,14.08
2023-01-30T02:00:41.745Z,14.08
2023-01-30T02:01:41.738Z,14.08
2023-01-30T02:02:41.744Z,14.07
2023-01-30T02:03:41.716Z,14.09
2023-01-30T02:04:41.712Z,14.07
2023-01-30T02:05:41.682Z,14.08
2023-01-30T02:06:41.662Z,14.09
2023-01-30T02:09:41.673Z,14.06
2023-01-30T02:10:41.674Z,14.06
2023-01-30T02:11:41.676Z,14.05
2023-01-30T02:12:41.653Z,14.06
2023-01-30T02:13:41.637Z,14.03
2023-01-30T02:14:41.640Z,14.05
2023-01-30T02:15:41.635Z,14.04
2023-01-30T02:17:41.614Z,14.03
2023-01-30T02:18:41.590Z,14.02
2023-01-30T02:19:41.646Z,14.03
2023-01-30T02:20:41.578Z,14.01
2023-01-30T02:21:41.636Z,14.00
2023-01-30T02:22:41.612Z,13.99
2023-01-30T02:23:41.660Z,14.00
2023-01-30T02:24:41.670Z,13.99
2023-01-30T02:25:41.639Z,13.98
2023-01-30T02:26:41.742Z,13.99
2023-01-30T02:27:41.718Z,13.98
2023-01-30T02:28:41.768Z,13.97
2023-01-30T02:29:41.767Z,13.96
2023-01-30T02:30:41.810Z,13.99
2023-01-30T02:31:41.815Z,13.96
2023-01-30T02:32:41.806Z,13.95
2023-01-30T02:33:41.811Z,13.94
2023-01-30T02:34:41.820Z,13.92
2023-01-30T02:35:41.913Z,13.94
2023-01-30T02:36:41.915Z,13.95
2023-01-30T02:37:41.979Z,13.95
2023-01-30T02:38:42.000Z,13.93
2023-01-30T02:39:42.032Z,13.95
2023-01-30T02:40:42.103Z,13.93
2023-01-30T02:41:42.127Z,13.92
2023-01-30T02:42:42.163Z,13.92
2023-01-30T02:43:42.222Z,13.93
2023-01-30T02:44:42.223Z,13.93
2023-01-30T02:45:42.351Z,13.91
2023-01-30T02:46:42.350Z,13.90
2023-01-30T02:47:42.378Z,13.92
2023-01-30T02:48:42.462Z,13.89
2023-01-30T02:49:42.519Z,13.89
2023-01-30T02:50:42.580Z,13.90
2023-01-30T02:51:42.624Z,13.90
2023-01-30T02:52:42.721Z,13.89
2023-01-30T02:53:42.773Z,13.89
2023-01-30T02:54:42.776Z,13.88
2023-01-30T02:55:42.854Z,13.86
2023-01-30T02:56:42.900Z,13.87
2023-01-30T02:57:43.008Z,13.86
2023-01-30T02:58:43.055Z,13.85
2023-01-30T02:59:43.089Z,13.87
2023-01-30T03:00:43.174Z,13.85
2023-01-30T03:01:43.231Z,13.85
2023-01-30T03:02:43.344Z,13.86
2023-01-30T03:03:43.336Z,13.86
2023-01-30T03:04:43.400Z,13.85
2023-01-30T03:05:43.468Z,13.85
2023-01-30T03:06:43.509Z,13.85
2023-01-30T03:07:43.589Z,13.85
2023-01-30T03:08:43.627Z,13.84
2023-01-30T03:09:43.673Z,13.84
2023-01-30T03:10:43.733Z,13.84
2023-01-30T03:11:43.805Z,13.84
2023-01-30T03:12:43.869Z,13.84
2023-01-30T03:13:43.937Z,13.84
2023-01-30T03:14:43.979Z,13.83
2023-01-30T03:15:44.068Z,13.83
2023-01-30T03:16:44.076Z,13.82
2023-01-30T03:17:44.158Z,13.83
2023-01-30T03:18:44.228Z,13.85
2023-01-30T03:19:44.250Z,13.83
2023-01-30T03:20:44.322Z,13.82
2023-01-30T03:21:44.359Z,13.81
2023-01-30T03:22:44.473Z,13.80
2023-01-30T03:23:44.505Z,13.81
2023-01-30T03:24:44.564Z,13.80
2023-01-30T03:25:44.628Z,13.80
2023-01-30T03:26:44.741Z,13.80
2023-01-30T03:27:44.732Z,13.79
2023-01-30T03:29:44.851Z,13.80
2023-01-30T03:30:44.958Z,13.77
2023-01-30T03:31:45.054Z,13.80
2023-01-30T03:32:45.050Z,13.78
2023-01-30T03:33:45.120Z,13.79
2023-01-30T03:34:45.210Z,13.77
2023-01-30T03:35:45.223Z,13.79
2023-01-30T03:36:45.282Z,13.79
2023-01-30T03:37:45.359Z,13.80
2023-01-30T03:38:45.404Z,13.77
2023-01-30T03:39:45.472Z,13.76
2023-01-30T04:09:47.165Z,13.70
2023-01-30T04:10:47.177Z,13.70
2023-01-30T04:11:47.225Z,13.69
2023-01-30T04:12:47.256Z,13.71
2023-01-30T04:13:47.317Z,13.67
2023-01-30T04:14:47.312Z,13.67
2023-01-30T04:15:47.385Z,13.67
2023-01-30T04:16:47.444Z,13.69
2023-01-30T04:17:47.467Z,13.68
2023-01-30T04:18:47.438Z,13.66
2023-01-30T04:19:47.484Z,13.66
2023-01-30T04:20:47.530Z,13.65
2023-01-30T04:21:47.595Z,13.66
2023-01-30T04:22:47.645Z,13.66
2023-01-30T04:23:47.701Z,13.68
2023-01-30T04:24:47.768Z,13.66
2023-01-30T04:25:47.789Z,13.66
2023-01-30T04:26:47.902Z,13.66
2023-01-30T04:27:47.876Z,13.66
2023-01-30T04:28:47.959Z,13.65
2023-01-30T04:29:47.968Z,13.67
2023-01-30T04:30:48.044Z,13.65
2023-01-30T04:31:48.081Z,13.65
2023-01-30T04:32:48.132Z,13.65
2023-01-30T04:33:48.169Z,13.63
2023-01-30T04:34:48.247Z,13.65
2023-01-30T04:35:48.260Z,13.64
2023-01-30T04:36:48.339Z,13.65
2023-01-30T04:37:48.375Z,13.64
2023-01-30T04:38:48.423Z,13.63
2023-01-30T04:39:48.505Z,13.63
2023-01-30T04:40:48.539Z,13.62
2023-01-30T04:41:48.613Z,13.64
2023-01-30T04:42:48.656Z,13.65
2023-01-30T04:43:48.733Z,13.64
2023-01-30T04:44:48.772Z,13.64
2023-01-30T04:45:48.821Z,13.62
2023-01-30T04:46:48.960Z,13.64
2023-01-30T05:04:49.972Z,13.66
2023-01-30T05:05:50.050Z,13.68
2023-01-30T05:06:50.084Z,13.70
2023-01-30T05:07:50.136Z,13.67
2023-01-30T05:08:50.124Z,13.68
2023-01-30T05:09:50.181Z,13.67
2023-01-30T05:10:50.214Z,13.68
2023-01-30T05:11:50.235Z,13.67
2023-01-30T05:12:50.193Z,13.63
2023-01-30T05:13:50.237Z,13.67
2023-01-30T05:14:50.277Z,13.69
2023-01-30T05:15:50.290Z,13.71
2023-01-30T05:16:50.312Z,13.69
2023-01-30T05:17:50.288Z,13.67
2023-01-30T05:18:50.311Z,13.68
2023-01-30T05:19:50.315Z,13.68
2023-01-30T05:20:50.356Z,13.66
2023-01-30T05:21:50.337Z,13.66
2023-01-30T05:22:50.340Z,13.66
2023-01-30T05:23:50.327Z,13.67
2023-01-30T05:30:50.473Z,13.65
2023-01-30T05:31:50.405Z,13.65
2023-01-30T05:32:50.383Z,13.65
2023-01-30T05:33:50.394Z,13.68
2023-01-30T05:34:50.377Z,13.64
2023-01-30T05:35:50.390Z,13.67
2023-01-30T05:36:50.407Z,13.67
2023-01-30T05:37:50.402Z,13.67
2023-01-30T05:38:50.435Z,13.67
2023-01-30T05:39:50.424Z,13.66
2023-01-30T05:40:50.424Z,13.66
2023-01-30T05:41:50.387Z,13.66
2023-01-30T05:42:50.393Z,13.65
2023-01-30T05:43:50.432Z,13.64
2023-01-30T05:44:50.461Z,13.64
2023-01-30T05:45:50.428Z,13.64
2023-01-30T05:46:50.513Z,13.66
2023-01-30T05:47:50.457Z,13.64
2023-01-30T05:48:50.451Z,13.64
2023-01-30T05:49:50.479Z,13.62
2023-01-30T05:50:50.474Z,13.63
2023-01-30T05:51:51.564Z,13.64
2023-01-30T05:52:50.467Z,13.63
2023-01-30T05:53:50.484Z,13.66
2023-01-30T05:54:50.481Z,13.64
2023-01-30T05:55:50.480Z,13.62
2023-01-30T06:00:57.516Z,13.64
2023-01-30T06:01:50.520Z,13.65
2023-01-30T06:02:50.583Z,13.65
2023-01-30T06:03:50.558Z,13.64
2023-01-30T06:04:50.493Z,13.65
2023-01-30T06:05:50.511Z,13.64
2023-01-30T06:06:50.514Z,13.64
2023-01-30T06:07:50.468Z,13.64
2023-01-30T06:08:50.549Z,13.66
2023-01-30T06:09:50.487Z,13.64
2023-01-30T06:10:50.464Z,13.65
2023-01-30T06:11:51.417Z,13.62
2023-01-30T06:12:50.465Z,13.62
2023-01-30T06:13:50.488Z,13.62
2023-01-30T06:14:50.463Z,13.63
2023-01-30T06:15:50.441Z,13.64
2023-01-30T06:16:50.461Z,13.63
2023-01-30T06:17:50.452Z,13.63
2023-01-30T06:18:50.459Z,13.62
2023-01-30T06:19:50.454Z,13.60
2023-01-30T06:20:50.440Z,13.60
2023-01-30T06:21:50.401Z,13.59
2023-01-30T06:22:50.435Z,13.59
2023-01-30T06:23:50.368Z,13.58
2023-01-30T06:24:50.387Z,13.61
2023-01-30T06:25:50.360Z,13.60
2023-01-30T06:26:50.431Z,13.59
2023-01-30T06:27:50.404Z,13.62
2023-01-30T06:28:50.376Z,13.59
2023-01-30T06:29:50.388Z,13.62
2023-01-30T06:30:50.403Z,13.61
2023-01-30T06:31:50.371Z,13.61
2023-01-30T06:32:50.353Z,13.62
2023-01-30T06:33:50.337Z,13.63
2023-01-30T06:34:50.357Z,13.86
2023-01-30T06:35:50.343Z,14.07
2023-01-30T06:36:50.338Z,15.05
2023-01-30T06:37:50.335Z,14.57
2023-01-30T06:38:50.350Z,15.34
2023-01-30T06:39:50.335Z,15.95
2023-01-30T06:40:50.324Z,16.00
2023-01-30T06:41:50.284Z,16.12
2023-01-30T06:42:50.338Z,16.40
2023-01-30T06:43:50.381Z,16.68
2023-01-30T06:44:50.299Z,15.27
2023-01-30T06:45:57.319Z,15.42
2023-01-30T06:46:50.305Z,16.42
2023-01-30T06:47:50.242Z,16.55
2023-01-30T06:48:50.267Z,16.84
2023-01-30T06:49:50.245Z,16.65
2023-01-30T06:50:50.267Z,16.91
2023-01-30T06:51:50.228Z,17.09
2023-01-30T06:52:50.243Z,17.30
2023-01-30T06:53:52.392Z,17.44
2023-01-30T06:54:50.220Z,17.50
2023-01-30T06:55:50.276Z,16.93
2023-01-30T06:56:50.224Z,17.01
2023-01-30T06:57:50.190Z,16.96
2023-01-30T06:58:50.166Z,17.02
2023-01-30T06:59:50.180Z,17.15
2023-01-30T07:00:50.179Z,17.28
2023-01-30T07:01:50.150Z,17.48
2023-01-30T07:02:50.152Z,17.69
2023-01-30T07:03:50.188Z,17.63
2023-01-30T07:04:50.137Z,17.77
2023-01-30T07:05:50.142Z,17.76
2023-01-30T07:06:50.123Z,18.10
2023-01-30T07:07:50.136Z,18.13
2023-01-30T07:08:50.147Z,18.08
2023-01-30T07:10:02.289Z,18.34
2023-01-30T07:10:51.109Z,18.41
2023-01-30T07:11:50.074Z,18.37
2023-01-30T07:12:50.091Z,18.39
2023-01-30T07:13:50.144Z,18.43
2023-01-30T07:14:50.077Z,18.48
2023-01-30T07:15:50.091Z,18.71
2023-01-30T07:16:50.076Z,18.81
2023-01-30T07:17:50.036Z,18.85
2023-01-30T07:18:50.069Z,18.93
2023-01-30T07:19:50.053Z,19.10
2023-01-30T07:20:50.117Z,19.28
2023-01-30T07:21:50.113Z,19.33
2023-01-30T07:22:50.170Z,19.50
2023-01-30T07:23:50.157Z,19.39
2023-01-30T07:24:50.208Z,19.46
2023-01-30T07:25:50.207Z,19.68
2023-01-30T07:26:50.283Z,19.77
2023-01-30T07:27:50.259Z,20.02
2023-01-30T07:28:50.324Z,20.03
2023-01-30T07:29:51.901Z,19.97
2023-01-30T07:30:51.384Z,19.97
2023-01-30T07:31:50.397Z,20.00
2023-01-30T07:32:50.328Z,20.05
2023-01-30T07:33:50.456Z,20.05
2023-01-30T07:34:50.313Z,20.26
2023-01-30T07:35:50.316Z,20.55
2023-01-30T07:36:50.274Z,20.96
2023-01-30T07:37:50.286Z,20.32
2023-01-30T07:38:50.447Z,20.22
2023-01-30T07:39:50.283Z,19.98
2023-01-30T07:40:50.300Z,19.74
2023-01-30T07:41:50.259Z,19.93
2023-01-30T07:42:50.266Z,19.88
2023-01-30T07:43:50.557Z,19.88
2023-01-30T07:44:50.325Z,19.94
2023-01-30T07:45:50.282Z,20.04
2023-01-30T07:46:50.288Z,20.24
2023-01-30T07:47:50.226Z,20.38
2023-01-30T07:48:50.249Z,20.51
2023-01-30T07:49:50.316Z,20.50
2023-01-30T07:50:50.342Z,20.47
2023-01-30T07:51:50.328Z,20.59
2023-01-30T07:52:50.397Z,20.63
2023-01-30T07:53:50.357Z,20.80
2023-01-30T07:54:50.401Z,20.78
2023-01-30T07:55:50.414Z,20.75
2023-01-30T07:56:50.426Z,20.80
2023-01-30T07:57:50.442Z,20.84
2023-01-30T07:58:50.471Z,21.03
2023-01-30T07:59:50.489Z,21.09
2023-01-30T08:00:50.514Z,21.24
2023-01-30T08:01:50.524Z,21.13
2023-01-30T08:02:50.546Z,21.17
2023-01-30T08:03:50.581Z,21.13
2023-01-30T08:04:50.642Z,21.20
2023-01-30T08:05:50.660Z,21.36
2023-01-30T08:06:50.637Z,21.55
2023-01-30T08:07:50.618Z,21.63
2023-01-30T08:08:50.659Z,21.50
2023-01-30T08:09:50.646Z,21.42
2023-01-30T08:10:50.698Z,21.33
2023-01-30T08:11:50.725Z,21.05
2023-01-30T08:12:50.795Z,20.76
2023-01-30T08:13:50.819Z,20.24
2023-01-30T08:14:50.919Z,20.37
2023-01-30T08:15:50.968Z,20.13
2023-01-30T08:16:51.050Z,20.06
2023-01-30T08:17:50.986Z,19.76
2023-01-30T08:18:50.991Z,20.04
2023-01-30T08:19:51.108Z,19.51
2023-01-30T08:20:51.041Z,19.45
2023-01-30T08:21:51.039Z,19.51
2023-01-30T08:22:51.092Z,19.50
2023-01-30T08:23:51.091Z,19.31
2023-01-30T08:24:51.129Z,19.16
2023-01-30T08:25:51.187Z,19.29
2023-01-30T08:26:51.177Z,18.96
2023-01-30T08:27:51.229Z,19.18
2023-01-30T08:28:51.230Z,18.91
2023-01-30T08:29:51.304Z,18.70
2023-01-30T08:30:51.415Z,18.83
2023-01-30T08:31:51.311Z,19.11
2023-01-30T08:32:51.375Z,22.53
2023-01-30T08:33:51.435Z,24.83
2023-01-30T08:34:51.635Z,19.38
2023-01-30T08:35:51.489Z,17.06
2023-01-30T08:36:51.524Z,17.72
2023-01-30T08:37:51.525Z,18.52
2023-01-30T08:38:51.576Z,20.40
2023-01-30T08:39:51.623Z,21.22
2023-01-30T08:40:51.619Z,21.58
2023-01-30T08:41:51.625Z,21.46
2023-01-30T08:42:51.690Z,21.28
2023-01-30T08:43:51.707Z,20.94
2023-01-30T08:44:51.710Z,20.54
2023-01-30T08:45:51.761Z,20.21
2023-01-30T08:46:51.769Z,19.56
2023-01-30T08:47:51.795Z,19.78
2023-01-30T08:48:51.777Z,19.96
2023-01-30T08:49:51.897Z,19.87
2023-01-30T08:50:51.854Z,19.97
2023-01-30T08:51:51.866Z,20.07
2023-01-30T08:52:51.906Z,19.98
2023-01-30T08:53:51.967Z,19.85
2023-01-30T08:54:52.027Z,19.96
2023-01-30T08:55:52.023Z,19.84
2023-01-30T08:56:52.001Z,19.93
2023-01-30T08:57:52.043Z,19.85
2023-01-30T08:58:52.127Z,19.91
2023-01-30T08:59:52.121Z,19.94
2023-01-30T09:00:52.259Z,19.57
2023-01-30T09:01:52.237Z,19.27
2023-01-30T09:02:52.328Z,19.01
2023-01-30T09:03:52.342Z,18.49
2023-01-30T09:04:52.387Z,18.58
2023-01-30T09:05:52.431Z,18.13
2023-01-30T09:06:52.508Z,17.79
2023-01-30T09:07:52.639Z,17.99
2023-01-30T09:08:52.614Z,17.71
2023-01-30T09:09:53.006Z,17.61
2023-01-30T09:10:52.743Z,17.27
2023-01-30T09:11:52.790Z,17.58
2023-01-30T09:12:52.826Z,17.43
2023-01-30T09:13:52.835Z,17.40
2023-01-30T09:14:52.874Z,17.14
2023-01-30T09:15:52.920Z,17.21
2023-01-30T09:16:52.969Z,17.47
2023-01-30T09:17:52.986Z,17.41
2023-01-30T09:18:53.034Z,17.50
2023-01-30T09:19:53.088Z,17.23
2023-01-30T09:20:53.824Z,16.44
2023-01-30T09:21:53.143Z,18.15
2023-01-30T09:22:53.211Z,18.44
2023-01-30T09:23:53.159Z,18.71
2023-01-30T09:24:53.221Z,18.71
2023-01-30T09:25:53.213Z,19.10
2023-01-30T09:26:53.259Z,19.13
2023-01-30T09:27:53.308Z,19.31
2023-01-30T09:28:53.340Z,19.10
2023-01-30T09:29:53.419Z,19.13
2023-01-30T09:30:53.569Z,19.76
2023-01-30T09:31:53.468Z,19.37
2023-01-30T09:32:53.472Z,19.43
2023-01-30T09:33:53.508Z,19.34
2023-01-30T09:34:54.018Z,19.31
2023-01-30T09:35:53.590Z,19.17
2023-01-30T09:36:53.663Z,19.03
2023-01-30T09:37:53.766Z,19.16
2023-01-30T09:38:53.776Z,19.01
2023-01-30T09:39:53.845Z,18.89
2023-01-30T09:40:54.044Z,18.95
2023-01-30T09:41:53.817Z,18.83
2023-01-30T09:42:53.844Z,18.95
2023-01-30T09:43:53.867Z,18.92
2023-01-30T09:44:53.857Z,19.01
2023-01-30T09:45:53.904Z,19.03
2023-01-30T09:46:53.864Z,18.90
2023-01-30T09:47:53.879Z,19.04
2023-01-30T09:48:53.891Z,19.18
2023-01-30T09:49:53.965Z,19.25
2023-01-30T09:50:53.993Z,19.40
2023-01-30T09:51:53.968Z,19.46
2023-01-30T09:52:53.979Z,18.22
2023-01-30T09:53:53.948Z,17.00
2023-01-30T09:54:53.987Z,17.12
2023-01-30T09:55:54.033Z,17.50
2023-01-30T09:56:54.017Z,18.17
2023-01-30T09:57:54.006Z,18.51
2023-01-30T09:58:54.109Z,18.69
2023-01-30T09:59:54.025Z,18.88
2023-01-30T10:00:54.093Z,19.02
2023-01-30T10:01:54.006Z,19.29
2023-01-30T10:02:54.108Z,19.33
2023-01-30T10:03:54.143Z,19.33
2023-01-30T10:05:01.239Z,19.50
2023-01-30T10:05:55.549Z,19.56
2023-01-30T10:06:54.155Z,19.63
2023-01-30T10:07:54.201Z,19.29
2023-01-30T10:08:54.148Z,19.21
2023-01-30T10:09:54.169Z,18.68
2023-01-30T10:11:08.865Z,19.00
2023-01-30T10:11:55.095Z,19.06
2023-01-30T10:12:54.100Z,18.76
2023-01-30T10:13:54.095Z,19.02
2023-01-30T10:14:54.079Z,19.02
2023-01-30T10:15:54.539Z,18.92
2023-01-30T10:16:54.068Z,18.85
2023-01-30T10:17:54.066Z,18.71
2023-01-30T10:18:54.095Z,18.82
2023-01-30T10:19:54.051Z,18.72
2023-01-30T10:20:54.065Z,18.71
2023-01-30T10:21:54.149Z,18.56
2023-01-30T10:22:54.075Z,18.72
2023-01-30T10:23:54.134Z,18.65
2023-01-30T10:24:54.047Z,17.09
2023-01-30T10:25:54.031Z,16.18
2023-01-30T10:26:54.042Z,16.44
2023-01-30T10:27:54.013Z,17.28
2023-01-30T10:29:06.196Z,17.94
2023-01-30T10:29:55.019Z,18.29
2023-01-30T10:30:54.123Z,18.44
2023-01-30T10:31:54.063Z,18.56
2023-01-30T10:32:53.973Z,18.45
2023-01-30T10:33:53.957Z,18.44
2023-01-30T10:34:54.543Z,18.45
2023-01-30T10:35:54.072Z,18.43
2023-01-30T10:36:53.974Z,18.37
2023-01-30T10:37:53.932Z,18.37
2023-01-30T10:42:53.969Z,18.66
2023-01-30T10:43:53.946Z,18.82
2023-01-30T10:44:53.993Z,18.52
2023-01-30T10:45:54.027Z,18.54
2023-01-30T10:46:54.109Z,18.63
2023-01-30T10:47:54.051Z,18.63
2023-01-30T10:48:54.085Z,18.74
2023-01-30T10:49:54.114Z,18.94
2023-01-30T10:50:54.550Z,18.73
2023-01-30T10:51:54.127Z,18.80
2023-01-30T10:52:54.121Z,18.85
2023-01-30T10:53:54.232Z,18.78
2023-01-30T10:54:54.148Z,18.87
2023-01-30T10:55:54.182Z,18.09
2023-01-30T10:56:54.220Z,18.00
2023-01-30T10:58:54.230Z,17.91
2023-01-30T10:59:54.293Z,17.85
2023-01-30T11:00:54.276Z,17.86
2023-01-30T11:01:54.401Z,17.42
2023-01-30T11:02:54.385Z,17.71
2023-01-30T11:03:54.363Z,17.46
2023-01-30T11:04:55.030Z,17.44
2023-01-30T11:05:54.452Z,17.59
2023-01-30T11:06:54.451Z,18.05
2023-01-30T11:07:55.071Z,16.24
2023-01-30T11:08:54.499Z,17.54
2023-01-30T11:09:54.607Z,17.88
2023-01-30T11:10:55.507Z,18.51
2023-01-30T11:11:54.512Z,18.64
2023-01-30T11:12:54.508Z,18.59
2023-01-30T11:13:54.513Z,18.78
2023-01-30T11:14:54.482Z,18.72
2023-01-30T11:15:54.478Z,18.71
2023-01-30T11:16:54.456Z,17.80
2023-01-30T11:17:55.671Z,17.75
2023-01-30T11:19:56.549Z,18.36
2023-01-30T11:20:54.730Z,18.19
2023-01-30T11:21:54.689Z,18.23
2023-01-30T11:22:54.749Z,18.50
2023-01-30T11:23:54.708Z,17.91
2023-01-30T11:24:54.663Z,17.22
2023-01-30T11:26:10.184Z,16.87
2023-01-30T11:26:55.663Z,16.70
2023-01-30T11:27:54.652Z,16.61
2023-01-30T11:28:54.628Z,16.56
2023-01-30T11:29:54.675Z,17.00
2023-01-30T11:30:55.069Z,17.05
2023-01-30T11:31:54.836Z,16.54
2023-01-30T11:32:54.843Z,16.56
2023-01-30T11:33:54.924Z,16.22
2023-01-30T11:34:54.940Z,16.70
2023-01-30T11:35:55.059Z,16.78
2023-01-30T11:36:54.938Z,15.43
2023-01-30T11:37:54.978Z,15.44
2023-01-30T11:38:55.035Z,16.74
2023-01-30T11:39:55.055Z,18.92
2023-01-30T11:40:55.535Z,18.92
2023-01-30T11:41:55.106Z,20.22
2023-01-30T11:42:56.059Z,21.07
2023-01-30T11:43:55.141Z,20.69
2023-01-30T11:45:00.698Z,20.06
2023-01-30T11:45:56.257Z,19.58
2023-01-30T11:46:55.230Z,19.12
2023-01-30T11:47:59.513Z,18.77
2023-01-30T11:49:01.513Z,18.54
2023-01-30T11:50:23.364Z,18.44
2023-01-30T11:50:56.159Z,18.13
2023-01-30T11:51:55.139Z,17.90
2023-01-30T11:52:55.140Z,17.75
2023-01-30T11:53:55.148Z,17.52
2023-01-30T11:54:55.085Z,17.36
2023-01-30T11:56:03.847Z,17.18
2023-01-30T11:56:56.135Z,17.03
2023-01-30T11:57:55.125Z,16.87
2023-01-30T11:58:55.155Z,16.70
2023-01-30T11:59:55.202Z,16.58
2023-01-30T12:00:55.252Z,16.46
2023-01-30T12:01:55.306Z,16.37
2023-01-30T12:02:55.292Z,16.28
2023-01-30T12:03:55.337Z,16.20
2023-01-30T12:04:55.308Z,16.12
2023-01-30T12:05:55.339Z,16.04
2023-01-30T12:06:55.348Z,15.98
2023-01-30T12:07:55.333Z,15.92
2023-01-30T12:08:55.403Z,15.86
2023-01-30T12:09:55.474Z,15.80
2023-01-30T12:10:55.561Z,15.76
2023-01-30T12:11:55.577Z,15.69
2023-01-30T12:12:55.602Z,15.64
2023-01-30T12:13:55.706Z,15.61
2023-01-30T12:14:55.709Z,15.56
2023-01-30T12:15:56.052Z,15.53
2023-01-30T12:16:55.787Z,15.47
2023-01-30T12:17:55.822Z,15.43
2023-01-30T12:18:57.177Z,15.38
2023-01-30T12:19:55.883Z,15.38
2023-01-30T12:22:55.973Z,15.28
2023-01-30T12:23:56.019Z,15.28
2023-01-30T12:24:56.015Z,15.25
2023-01-30T12:25:55.996Z,15.24
2023-01-30T12:27:56.097Z,15.17
2023-01-30T12:28:56.143Z,15.48
2023-01-30T12:29:56.115Z,15.49
2023-01-30T12:30:56.116Z,15.77
2023-01-30T12:31:56.602Z,15.64
2023-01-30T12:32:56.156Z,15.75
2023-01-30T12:33:56.179Z,15.87
2023-01-30T12:34:56.262Z,15.79
2023-01-30T12:35:56.263Z,15.73
2023-01-30T12:36:56.272Z,15.68
2023-01-30T12:37:56.278Z,15.70
2023-01-30T12:38:56.347Z,15.48
2023-01-30T12:39:56.395Z,15.52
2023-01-30T12:40:56.396Z,15.62
2023-01-30T12:41:56.406Z,15.64
2023-01-30T12:42:56.448Z,15.63
2023-01-30T12:43:56.459Z,15.63
2023-01-30T12:44:56.497Z,15.65
2023-01-30T12:45:56.564Z,15.66
2023-01-30T12:46:56.567Z,15.63
2023-01-30T12:47:56.577Z,15.60
2023-01-30T12:49:10.948Z,15.58
2023-01-30T12:49:57.586Z,15.57
2023-01-30T12:50:56.559Z,15.55
2023-01-30T12:51:56.572Z,15.51
2023-01-30T12:52:56.588Z,15.51
2023-01-30T12:53:56.566Z,15.44
2023-01-30T12:54:56.582Z,15.62
2023-01-30T12:55:56.549Z,15.75
2023-01-30T12:56:56.540Z,15.87
2023-01-30T12:57:56.554Z,15.87
2023-01-30T12:58:56.546Z,15.83
2023-01-30T12:59:56.524Z,15.89
2023-01-30T13:00:56.521Z,16.68
2023-01-30T13:01:56.561Z,17.44
2023-01-30T13:02:56.485Z,17.93
2023-01-30T13:03:56.469Z,18.27
2023-01-30T13:05:04.126Z,18.80
2023-01-30T13:05:57.469Z,19.68
2023-01-30T13:06:56.507Z,20.39
2023-01-30T13:07:56.478Z,20.72
2023-01-30T13:08:56.473Z,21.28
2023-01-30T13:09:56.487Z,21.72
2023-01-30T13:10:56.440Z,21.91
2023-01-30T13:11:56.451Z,22.28
2023-01-30T13:12:56.424Z,22.52
2023-01-30T13:13:56.447Z,22.56
2023-01-30T13:14:56.417Z,22.89
2023-01-30T13:15:56.510Z,22.91
2023-01-30T13:16:56.420Z,22.84
2023-01-30T13:17:56.377Z,22.85
2023-01-30T13:18:56.378Z,22.95
2023-01-30T13:19:56.397Z,23.06
2023-01-30T13:20:56.421Z,23.16
2023-01-30T13:21:56.400Z,23.07
2023-01-30T13:22:56.361Z,23.08
2023-01-30T13:23:56.388Z,23.04
2023-01-30T13:24:56.392Z,22.89
2023-01-30T13:25:56.393Z,22.79
2023-01-30T13:26:56.503Z,22.86
2023-01-30T13:27:56.351Z,22.84
2023-01-30T13:28:56.358Z,22.87
2023-01-30T13:29:56.332Z,22.82
2023-01-30T13:30:56.346Z,22.65
2023-01-30T13:31:56.427Z,22.57
2023-01-30T13:32:56.339Z,22.43
2023-01-30T13:33:56.436Z,22.38
2023-01-30T13:34:56.457Z,22.34
2023-01-30T13:35:56.460Z,22.28
2023-01-30T13:36:56.469Z,22.15
2023-01-30T13:37:56.464Z,22.08
2023-01-30T13:38:56.485Z,22.08
2023-01-30T13:39:56.448Z,22.11
2023-01-30T13:40:56.444Z,21.99
2023-01-30T13:41:56.496Z,21.83
2023-01-30T13:42:56.453Z,21.73
2023-01-30T13:43:56.496Z,21.78
2023-01-30T13:44:56.509Z,21.63
2023-01-30T13:45:56.533Z,21.51
2023-01-30T13:46:56.617Z,21.49
2023-01-30T13:47:56.547Z,21.41
2023-01-30T13:48:56.553Z,21.33
2023-01-30T13:49:56.554Z,21.20
2023-01-30T13:50:56.581Z,21.13
2023-01-30T13:51:56.573Z,21.01
2023-01-30T13:52:56.580Z,21.00
2023-01-30T13:53:56.568Z,20.96
2023-01-30T13:54:56.679Z,20.83
2023-01-30T13:55:56.595Z,20.79
2023-01-30T13:56:56.599Z,20.72
2023-01-30T13:57:56.647Z,20.57
2023-01-30T13:58:56.654Z,20.46
2023-01-30T13:59:56.653Z,20.33
2023-01-30T14:00:56.709Z,20.35
2023-01-30T14:01:56.646Z,20.29
2023-01-30T14:02:56.655Z,20.25
2023-01-30T14:03:56.701Z,20.16
2023-01-30T14:04:56.673Z,20.16
2023-01-30T14:05:56.717Z,20.07
2023-01-30T14:06:56.709Z,19.99
2023-01-30T14:07:56.709Z,19.95
2023-01-30T14:08:56.692Z,19.87
2023-01-30T14:09:56.712Z,19.79
2023-01-30T14:10:56.742Z,19.68
2023-01-30T14:11:56.719Z,19.68
2023-01-30T14:12:56.773Z,19.68
2023-01-30T14:13:56.815Z,19.61
2023-01-30T14:14:56.777Z,19.49
2023-01-30T14:15:56.765Z,19.23
2023-01-30T14:16:56.763Z,19.22
2023-01-30T14:17:56.804Z,19.27
2023-01-30T14:18:56.789Z,19.11
2023-01-30T14:19:56.773Z,19.13
2023-01-30T14:20:56.784Z,19.13
2023-01-30T14:21:56.794Z,18.66
2023-01-30T14:22:56.802Z,18.85
2023-01-30T14:23:56.834Z,19.03
2023-01-30T14:24:56.923Z,20.44
2023-01-30T14:25:56.904Z,20.32
2023-01-30T14:26:56.935Z,20.19